Time;durP1;ratioP1;P1;durP2;ratioP2;P2;SDS_P1;SDS_P2;PMS_P1;PMS_P2;Temp;Humidity;BMP_temperature;BMP_pressure;BME280_temperature;BME280_humidity;BME280_pressure;Samples;Min_cycle;Max_cycle;Signal;HPM_P1;HPM_P2
2022/09/29 00:01:14;;;;;;;8.43;4.53;;;;;;;5.95;100.00;99347.53;5025168;28;20140;-80
2022/09/29 00:03:44;;;;;;;6.80;5.00;;;;;;;5.93;100.00;99347.53;5012829;28;20057;-80
2022/09/29 00:06:17;;;;;;;8.32;4.90;;;;;;;5.91;100.00;99341.50;5020968;28;20049;-79
2022/09/29 00:08:46;;;;;;;8.05;5.40;;;;;;;5.88;100.00;99346.72;5036049;28;20362;-81
2022/09/29 00:11:17;;;;;;;5.78;4.85;;;;;;;5.84;100.00;99346.78;5022821;28;20049;-81
2022/09/29 00:13:45;;;;;;;7.25;5.85;;;;;;;5.83;100.00;99353.72;5025424;28;20239;-80
2022/09/29 00:16:17;;;;;;;9.45;5.95;;;;;;;5.82;100.00;99349.38;5023114;28;20053;-80
2022/09/29 00:18:46;;;;;;;6.78;5.10;;;;;;;5.80;100.00;99348.53;5008411;28;20049;-82
2022/09/29 00:21:18;;;;;;;7.25;5.22;;;;;;;5.75;100.00;99350.31;5005438;28;20132;-80
2022/09/29 00:23:46;;;;;;;6.97;5.22;;;;;;;5.74;100.00;99344.28;5020995;28;20076;-79
2022/09/29 00:26:24;;;;;;;6.18;4.85;;;;;;;5.70;100.00;99349.53;5017049;28;20049;-79
2022/09/29 00:28:57;;;;;;;6.88;4.53;;;;;;;5.67;100.00;99349.53;5017085;28;20037;-80
2022/09/29 00:31:38;;;;;;;7.55;6.50;;;;;;;5.65;100.00;99346.13;5019450;28;20727;-80
2022/09/29 00:34:05;;;;;;;6.32;4.40;;;;;;;5.60;100.00;99348.75;5021738;28;20050;-80
2022/09/29 00:36:33;;;;;;;7.60;5.03;;;;;;;5.57;100.00;99347.03;5002541;28;20546;-79
2022/09/29 00:39:01;;;;;;;6.43;5.57;;;;;;;5.55;100.00;99355.72;5021745;28;20676;-81
2022/09/29 00:41:36;;;;;;;5.75;5.05;;;;;;;5.53;100.00;99358.34;5023947;28;20064;-79
2022/09/29 00:44:04;;;;;;;8.27;5.93;;;;;;;5.52;100.00;99351.41;5009550;28;20111;-81
2022/09/29 00:46:51;;;;;;;10.93;5.25;;;;;;;5.51;100.00;99347.09;5038571;28;20540;-79
2022/09/29 00:49:50;;;;;;;9.80;5.97;;;;;;;5.49;100.00;99354.06;5004673;28;20140;-82
2022/09/29 00:52:26;;;;;;;8.80;5.38;;;;;;;5.46;100.00;99352.34;5038358;28;20492;-81
2022/09/29 00:55:00;;;;;;;7.22;5.78;;;;;;;5.43;100.00;99354.09;5005845;28;20052;-80
2022/09/29 00:57:36;;;;;;;6.50;4.18;;;;;;;5.37;100.00;99352.44;5006004;28;20073;-81
2022/09/29 01:00:12;;;;;;;6.40;4.50;;;;;;;5.25;100.00;99353.41;5025114;28;20438;-82
2022/09/29 01:02:51;;;;;;;8.02;5.68;;;;;;;5.19;100.00;99353.44;5025246;28;20395;-79
2022/09/29 01:05:27;;;;;;;10.95;7.05;;;;;;;5.17;100.00;99352.56;5020365;28;20061;-80
2022/09/29 01:07:55;;;;;;;9.85;6.25;;;;;;;5.13;100.00;99356.91;5007343;28;20140;-81
2022/09/29 01:10:23;;;;;;;9.75;5.82;;;;;;;5.09;100.00;99347.44;5027278;28;20769;-80
2022/09/29 01:12:50;;;;;;;9.82;7.45;;;;;;;5.12;100.00;99346.56;4992217;28;20447;-82
2022/09/29 01:15:20;;;;;;;10.13;7.20;;;;;;;5.09;100.00;99344.84;5010401;28;20038;-81
2022/09/29 01:17:48;;;;;;;8.10;6.82;;;;;;;5.08;100.00;99344.88;5024327;28;20045;-81
2022/09/29 01:20:22;;;;;;;9.30;6.50;;;;;;;5.05;100.00;99352.69;5024041;28;20049;-81
2022/09/29 01:23:45;;;;;;;8.82;6.40;;;;;;;5.06;100.00;99359.56;5021962;28;20060;-82
2022/09/29 01:26:45;;;;;;;8.35;5.88;;;;;;;5.01;100.00;99351.84;5004618;28;20048;-81
2022/09/29 01:29:38;;;;;;;8.10;5.90;;;;;;;5.01;100.00;99356.19;5026046;28;20389;-81
2022/09/29 01:32:39;;;;;;;10.40;6.20;;;;;;;5.01;100.00;99351.00;5025204;28;20092;-83
2022/09/29 01:35:42;;;;;;;11.07;6.57;;;;;;;4.97;100.00;99363.97;5024156;28;20046;-81
2022/09/29 01:38:27;;;;;;;9.65;6.03;;;;;;;4.95;100.00;99364.84;5022945;28;20029;-82
2022/09/29 01:41:28;;;;;;;8.50;6.78;;;;;;;4.95;100.00;99370.91;5023691;28;20066;-82
2022/09/29 01:44:23;;;;;;;11.30;7.30;;;;;;;4.93;100.00;99366.59;5022968;28;20040;-82
2022/09/29 01:47:15;;;;;;;11.90;7.75;;;;;;;4.91;100.00;99369.19;5038840;28;20593;-81
2022/09/29 01:49:50;;;;;;;10.38;6.93;;;;;;;4.91;100.00;99364.00;5010082;28;20460;-80
2022/09/29 01:52:26;;;;;;;10.00;8.25;;;;;;;4.91;100.00;99374.38;5008068;28;20063;-81
2022/09/29 01:55:09;;;;;;;13.35;9.18;;;;;;;4.90;100.00;99374.38;5025492;28;20132;-80
2022/09/29 01:57:45;;;;;;;14.63;9.48;;;;;;;4.88;100.00;99365.78;5021147;28;20761;-81
2022/09/29 02:00:16;;;;;;;14.13;9.82;;;;;;;4.83;100.00;99370.97;5027234;28;20121;-81
2022/09/29 02:03:43;;;;;;;18.08;10.85;;;;;;;4.85;100.00;99365.78;5025674;28;20045;-81
2022/09/29 02:06:21;;;;;;;13.15;9.52;;;;;;;4.84;100.00;99362.31;5019826;28;20202;-81
2022/09/29 02:08:56;;;;;;;11.55;8.10;;;;;;;4.79;100.00;99357.16;5021878;28;20057;-81
2022/09/29 02:11:23;;;;;;;14.23;9.70;;;;;;;4.78;100.00;99359.75;5023669;28;20752;-82
2022/09/29 02:14:14;;;;;;;12.32;9.18;;;;;;;4.74;100.00;99356.31;5030771;28;20037;-80
2022/09/29 02:16:52;;;;;;;12.75;8.13;;;;;;;4.74;100.00;99356.31;5014814;28;20063;-80
2022/09/29 02:19:34;;;;;;;13.13;7.82;;;;;;;4.77;100.00;99358.03;5027581;28;20064;-80
2022/09/29 02:22:02;;;;;;;11.43;7.35;;;;;;;4.75;100.00;99359.78;5046166;28;20046;-81
2022/09/29 02:24:29;;;;;;;12.90;8.63;;;;;;;4.74;100.00;99363.25;5016161;28;20053;-81
2022/09/29 02:26:58;;;;;;;12.35;8.80;;;;;;;4.71;100.00;99358.94;5013375;28;20089;-81
2022/09/29 02:29:25;;;;;;;9.27;7.30;;;;;;;4.69;100.00;99363.25;5014602;28;20112;-80
2022/09/29 02:31:51;;;;;;;9.25;7.35;;;;;;;4.67;100.00;99358.97;5028563;28;20042;-81
2022/09/29 02:34:21;;;;;;;11.88;7.22;;;;;;;4.63;100.00;99359.00;5013168;28;20124;-81
2022/09/29 02:37:47;;;;;;;10.93;7.20;;;;;;;4.63;100.00;99359.00;5012553;28;20484;-81
2022/09/29 02:40:45;;;;;;;11.07;7.07;;;;;;;4.59;100.00;99359.03;5043663;28;20058;-80
2022/09/29 02:43:28;;;;;;;13.45;8.23;;;;;;;4.54;100.00;99366.81;5028772;28;20040;-80
2022/09/29 02:46:11;;;;;;;17.85;9.23;;;;;;;4.54;100.00;99360.78;5025158;28;20076;-82
2022/09/29 02:49:26;;;;;;;12.55;8.23;;;;;;;4.54;100.00;99369.41;5024908;28;20049;-80
2022/09/29 02:51:59;;;;;;;11.93;8.60;;;;;;;4.49;100.00;99376.34;5007989;28;20438;-83
2022/09/29 02:54:49;;;;;;;12.57;8.23;;;;;;;4.49;100.00;99375.50;5027783;28;20045;-80
2022/09/29 02:57:54;;;;;;;14.27;8.98;;;;;;;4.43;100.00;99377.25;5024961;28;20099;-80
2022/09/29 03:00:21;;;;;;;13.25;8.48;;;;;;;4.41;100.00;99381.56;5030434;28;20073;-80
2022/09/29 03:02:48;;;;;;;16.63;9.00;;;;;;;4.36;100.00;99378.13;5012222;28;20103;-81
2022/09/29 03:05:19;;;;;;;13.00;9.15;;;;;;;4.33;100.00;99378.16;5030055;28;20049;-82
2022/09/29 03:07:46;;;;;;;13.60;8.30;;;;;;;4.33;100.00;99382.44;5030278;28;20068;-80
2022/09/29 03:10:16;;;;;;;13.23;9.57;;;;;;;4.30;100.00;99384.19;5028014;28;20092;-81
2022/09/29 03:12:43;;;;;;;17.05;10.65;;;;;;;4.31;100.00;99382.47;5024904;28;20496;-81
2022/09/29 03:15:12;;;;;;;18.60;10.60;;;;;;;4.30;100.00;99383.31;5027246;28;20053;-81
2022/09/29 03:17:42;;;;;;;18.05;10.38;;;;;;;4.30;100.00;99389.38;5026128;28;20487;-81
2022/09/29 03:20:11;;;;;;;15.18;10.10;;;;;;;4.27;100.00;99384.19;5014376;28;20037;-81
2022/09/29 03:22:37;;;;;;;14.88;10.13;;;;;;;4.26;100.00;99384.22;5013084;28;20132;-82
2022/09/29 03:25:06;;;;;;;16.70;9.68;;;;;;;4.24;100.00;99385.97;5033451;28;20138;-81
2022/09/29 03:27:37;;;;;;;19.95;10.38;;;;;;;4.23;100.00;99389.41;5011819;28;20046;-80
2022/09/29 03:30:06;;;;;;;19.83;11.40;;;;;;;4.25;100.00;99387.66;5031868;28;20505;-81
2022/09/29 03:32:33;;;;;;;16.85;10.30;;;;;;;4.25;100.00;99390.25;5027176;28;20064;-80
2022/09/29 03:35:00;;;;;;;19.17;11.55;;;;;;;4.25;100.00;99385.94;5024720;28;20068;-82
2022/09/29 03:37:26;;;;;;;18.75;11.82;;;;;;;4.25;100.00;99391.13;5021796;28;20476;-82
2022/09/29 03:39:53;;;;;;;21.20;12.43;;;;;;;4.25;100.00;99379.88;5027022;28;20034;-78
2022/09/29 03:42:23;;;;;;;22.20;12.15;;;;;;;4.28;100.00;99388.50;5026728;28;20531;-79
2022/09/29 03:44:49;;;;;;;20.10;13.55;;;;;;;4.33;100.00;99380.75;5028672;28;20050;-80
2022/09/29 03:47:16;;;;;;;22.90;13.18;;;;;;;4.39;100.00;99390.22;5027897;28;20050;-80
2022/09/29 03:49:44;;;;;;;21.65;12.77;;;;;;;4.45;100.00;99393.63;5025993;28;20072;-80
2022/09/29 03:52:11;;;;;;;20.88;13.50;;;;;;;4.53;100.00;99397.94;5024145;28;20500;-78
2022/09/29 03:54:37;;;;;;;25.55;14.00;;;;;;;4.58;100.00;99393.59;5023358;28;20045;-81
2022/09/29 03:57:06;;;;;;;19.75;12.00;;;;;;;4.66;100.00;99398.72;5019657;28;20041;-79
2022/09/29 03:59:33;;;;;;;25.92;13.15;;;;;;;4.70;100.00;99400.44;5025577;28;20049;-81
2022/09/29 04:02:00;;;;;;;24.90;13.98;;;;;;;4.78;100.00;99398.66;5023350;28;20518;-81
2022/09/29 04:04:27;;;;;;;27.17;13.38;;;;;;;4.87;100.00;99402.94;5020631;28;20156;-81
2022/09/29 04:06:56;;;;;;;21.75;13.38;;;;;;;4.95;100.00;99403.75;5004431;28;20045;-81
2022/09/29 04:09:26;;;;;;;20.33;12.10;;;;;;;4.97;100.00;99405.44;5024348;28;20068;-79
2022/09/29 04:11:55;;;;;;;17.85;11.20;;;;;;;5.00;100.00;99401.97;5006670;28;20037;-79
2022/09/29 04:14:22;;;;;;;19.90;12.63;;;;;;;5.03;100.00;99401.09;5022929;28;20052;-81
2022/09/29 04:16:48;;;;;;;29.60;13.15;;;;;;;5.01;100.00;99408.06;5017708;28;20046;-82
2022/09/29 04:19:15;;;;;;;19.23;12.20;;;;;;;4.92;100.00;99414.16;5006559;28;20057;-82
2022/09/29 04:21:41;;;;;;;19.92;11.63;;;;;;;4.89;100.00;99424.50;5002874;28;20064;-81
2022/09/29 04:24:08;;;;;;;23.48;12.90;;;;;;;4.80;100.00;99415.06;5002869;28;20068;-89
2022/09/29 04:26:35;;;;;;;20.55;12.48;;;;;;;4.70;100.00;99421.19;5023508;28;20077;-80
2022/09/29 04:29:02;;;;;;;18.45;12.38;;;;;;;4.61;100.00;99417.75;5020037;28;20033;-82
2022/09/29 04:31:28;;;;;;;22.40;11.65;;;;;;;4.67;100.00;99426.34;5018641;28;20053;-82
2022/09/29 04:33:56;;;;;;;18.52;11.57;;;;;;;4.61;100.00;99419.47;5008952;28;20127;-81
2022/09/29 04:36:25;;;;;;;23.70;12.27;;;;;;;4.56;100.00;99423.81;5023370;28;20045;-80
2022/09/29 04:38:52;;;;;;;25.20;12.85;;;;;;;4.52;100.00;99425.56;5039336;28;20044;-80
2022/09/29 04:41:18;;;;;;;22.63;13.57;;;;;;;4.50;100.00;99422.13;5027394;28;20088;-81
2022/09/29 04:43:47;;;;;;;25.60;13.80;;;;;;;4.46;100.00;99425.59;5019278;28;21184;-79
2022/09/29 04:46:14;;;;;;;25.60;14.77;;;;;;;4.41;100.00;99423.00;5037449;28;20374;-78
2022/09/29 04:48:41;;;;;;;28.08;15.63;;;;;;;4.40;100.00;99423.88;5029026;28;20816;-79
2022/09/29 04:51:09;;;;;;;25.05;15.32;;;;;;;4.39;100.00;99431.66;5027438;28;20050;-81
2022/09/29 04:53:40;;;;;;;28.05;16.35;;;;;;;4.34;100.00;99426.50;5026593;28;20099;-80
2022/09/29 04:56:08;;;;;;;22.88;13.70;;;;;;;4.33;100.00;99435.16;5023560;28;20492;-81
2022/09/29 04:58:36;;;;;;;30.88;15.88;;;;;;;4.30;100.00;99427.38;5013789;28;20052;-81
2022/09/29 05:01:12;;;;;;;30.23;16.15;;;;;;;4.30;100.00;99437.72;5042914;28;20045;-82
2022/09/29 05:03:39;;;;;;;32.75;17.05;;;;;;;4.30;100.00;99435.13;5027025;28;20530;-81
2022/09/29 05:06:08;;;;;;;29.13;15.55;;;;;;;4.28;100.00;99439.47;5010016;28;20144;-82
2022/09/29 05:08:43;;;;;;;33.25;15.48;;;;;;;4.26;100.00;99442.06;5026589;28;20131;-81
2022/09/29 05:11:13;;;;;;;27.65;16.55;;;;;;;4.22;100.00;99442.94;5026586;28;20053;-80
2022/09/29 05:13:40;;;;;;;26.27;16.27;;;;;;;4.23;100.00;99449.84;5012571;28;20041;-81
2022/09/29 05:16:07;;;;;;;31.48;16.95;;;;;;;4.23;100.00;99449.00;5026713;28;20051;-82
2022/09/29 05:18:35;;;;;;;36.05;17.33;;;;;;;4.24;100.00;99448.13;5011259;28;20049;-81
2022/09/29 05:21:08;;;;;;;28.27;16.48;;;;;;;4.26;100.00;99448.97;5009735;28;20044;-81
2022/09/29 05:23:36;;;;;;;31.08;17.20;;;;;;;4.23;100.00;99447.25;5008693;28;20075;-81
2022/09/29 05:26:07;;;;;;;31.27;17.08;;;;;;;4.24;100.00;99445.53;5024220;28;20049;-81
2022/09/29 05:28:35;;;;;;;30.13;16.30;;;;;;;4.24;100.00;99451.56;5026254;28;20095;-81
2022/09/29 05:31:06;;;;;;;31.02;18.25;;;;;;;4.20;100.00;99457.63;5025123;28;20041;-80
2022/09/29 05:33:34;;;;;;;28.58;17.45;;;;;;;4.18;100.00;99456.75;5011463;28;20041;-80
2022/09/29 05:36:01;;;;;;;31.83;18.05;;;;;;;4.21;100.00;99454.19;5010349;28;20080;-82
2022/09/29 05:38:28;;;;;;;29.25;16.40;;;;;;;4.22;100.00;99460.22;5009063;28;21321;-81
2022/09/29 05:40:55;;;;;;;32.78;16.48;;;;;;;4.22;100.00;99458.47;5008767;28;20068;-82
2022/09/29 05:43:22;;;;;;;27.05;17.00;;;;;;;4.28;100.00;99461.06;5026406;28;20048;-82
2022/09/29 05:45:48;;;;;;;34.10;17.60;;;;;;;4.30;100.00;99458.44;5037541;28;20041;-80
2022/09/29 05:48:15;;;;;;;29.92;16.65;;;;;;;4.33;100.00;99455.00;5006961;28;20056;-82
2022/09/29 05:50:42;;;;;;;28.40;17.48;;;;;;;4.34;100.00;99448.94;5020673;28;20041;-82
2022/09/29 05:53:10;;;;;;;35.75;18.98;;;;;;;4.36;100.00;99455.84;5008960;28;20243;-82
2022/09/29 05:55:38;;;;;;;28.52;15.88;;;;;;;4.37;100.00;99456.69;5027263;28;21098;-81
2022/09/29 05:58:06;;;;;;;35.70;17.27;;;;;;;4.39;100.00;99463.59;5027238;28;20045;-82
2022/09/29 06:00:36;;;;;;;34.15;18.23;;;;;;;4.41;100.00;99466.22;5026535;28;20076;-83
2022/09/29 06:03:08;;;;;;;36.25;20.00;;;;;;;4.45;100.00;99463.59;5027998;28;20794;-82
2022/09/29 06:05:39;;;;;;;36.67;19.48;;;;;;;4.51;100.00;99461.84;5006596;28;20037;-81
2022/09/29 06:08:09;;;;;;;32.70;19.02;;;;;;;4.55;100.00;99466.16;5028419;28;20041;-80
2022/09/29 06:10:36;;;;;;;35.55;18.63;;;;;;;4.60;100.00;99467.88;5010698;28;20056;-83
2022/09/29 06:13:03;;;;;;;35.50;19.67;;;;;;;4.62;100.00;99460.09;5011412;28;20412;-83
2022/09/29 06:15:31;;;;;;;39.20;19.30;;;;;;;4.64;100.00;99461.81;5024105;28;20477;-81
2022/09/29 06:17:59;;;;;;;26.13;17.73;;;;;;;4.72;100.00;99466.09;5025395;28;20711;-80
2022/09/29 06:20:27;;;;;;;39.75;19.52;;;;;;;4.78;100.00;99468.66;5024100;28;20049;-82
2022/09/29 06:22:55;;;;;;;32.83;20.52;;;;;;;4.89;100.00;99468.59;5024138;28;20045;-79
2022/09/29 06:25:22;;;;;;;36.78;19.05;;;;;;;5.08;100.00;99475.41;5009266;28;20045;-81
2022/09/29 06:27:49;;;;;;;39.58;18.58;;;;;;;5.41;100.00;99470.91;5007956;28;20728;-81
2022/09/29 06:30:16;;;;;;;37.88;18.95;;;;;;;5.49;100.00;99475.16;5024623;28;20041;-81
2022/09/29 06:32:43;;;;;;;36.45;20.08;;;;;;;5.51;100.00;99479.47;5026718;28;20041;-80
2022/09/29 06:37:55;;;;;;;29.10;16.88;;;;;;;6.51;100.00;99476.88;5028486;28;20048;-80
2022/09/29 06:40:23;;;;;;;29.27;17.08;;;;;;;6.95;100.00;99478.06;5010668;28;20049;-79
2022/09/29 06:42:50;;;;;;;22.70;14.02;;;;;;;7.35;100.00;99479.25;5028319;28;20042;-82
2022/09/29 06:45:18;;;;;;;27.45;15.20;;;;;;;7.73;100.00;99477.78;5033580;28;20049;-82
2022/09/29 06:47:45;;;;;;;26.25;15.20;;;;;;;8.12;100.00;99478.00;5023355;28;20049;-83
2022/09/29 06:50:12;;;;;;;23.70;13.25;;;;;;;8.40;100.00;99475.75;5037456;28;20081;-82
2022/09/29 06:52:38;;;;;;;25.23;14.50;;;;;;;8.65;100.00;99479.69;5036290;28;20042;-81
2022/09/29 06:55:07;;;;;;;20.05;13.02;;;;;;;8.85;100.00;99476.66;5032804;28;20046;-80
2022/09/29 06:57:35;;;;;;;22.48;14.05;;;;;;;9.16;100.00;99476.84;5017697;28;20049;-80
2022/09/29 07:00:03;;;;;;;20.95;12.43;;;;;;;9.52;100.00;99473.44;5021813;28;20040;-82
2022/09/29 07:02:30;;;;;;;18.35;13.05;;;;;;;9.80;100.00;99470.16;5033502;28;20040;-83
2022/09/29 07:04:56;;;;;;;18.80;12.90;;;;;;;10.07;100.00;99473.84;5047168;28;20128;-81
2022/09/29 07:07:23;;;;;;;20.60;12.98;;;;;;;10.38;100.00;99480.91;5021488;28;20480;-80
2022/09/29 07:09:49;;;;;;;20.20;12.18;;;;;;;10.53;100.00;99477.00;5018837;28;20045;-82
2022/09/29 07:12:16;;;;;;;20.15;12.52;;;;;;;10.69;99.96;99485.28;5031905;28;20500;-80
2022/09/29 07:14:44;;;;;;;19.42;12.07;;;;;;;10.91;100.00;99480.28;5028246;28;20045;-81
2022/09/29 07:17:12;;;;;;;19.58;12.30;;;;;;;11.08;95.32;99480.66;5015586;28;20073;-80
2022/09/29 07:19:39;;;;;;;22.83;13.93;;;;;;;11.33;89.47;99479.91;5033203;28;20109;-80
2022/09/29 07:22:09;;;;;;;15.48;12.02;;;;;;;11.62;95.21;99490.38;5012589;28;20160;-81
2022/09/29 07:24:39;;;;;;;19.20;12.10;;;;;;;12.13;91.90;99489.59;5033873;28;20122;-82
2022/09/29 07:27:08;;;;;;;15.75;11.55;;;;;;;12.49;88.73;99483.97;5025549;28;20410;-82
2022/09/29 07:29:35;;;;;;;16.02;11.63;;;;;;;12.95;84.81;99480.59;4994049;28;20125;-81
2022/09/29 07:32:03;;;;;;;16.33;11.85;;;;;;;13.27;85.81;99496.88;5026754;28;20045;-79
2022/09/29 07:34:30;;;;;;;14.40;11.30;;;;;;;13.59;83.80;99493.03;5007485;28;20724;-81
2022/09/29 07:36:58;;;;;;;15.70;11.45;;;;;;;13.67;80.53;99496.19;5022788;28;20041;-81
2022/09/29 07:39:26;;;;;;;14.73;10.80;;;;;;;14.09;76.92;99496.28;5011376;28;20088;-82
2022/09/29 07:41:54;;;;;;;18.00;11.90;;;;;;;14.41;74.74;99494.91;5024570;28;20049;-81
2022/09/29 07:44:21;;;;;;;17.73;10.63;;;;;;;14.57;73.35;99502.97;5024517;28;20041;-81
2022/09/29 07:46:51;;;;;;;13.07;10.68;;;;;;;14.04;74.32;99499.06;5009293;28;20053;-81
2022/09/29 07:49:24;;;;;;;14.30;10.00;;;;;;;13.63;77.36;99505.13;5010757;28;20057;-80
2022/09/29 07:51:53;;;;;;;13.57;11.32;;;;;;;13.19;76.22;99505.94;5026598;28;20096;-84
2022/09/29 07:54:21;;;;;;;18.70;11.38;;;;;;;12.78;77.50;99510.94;5027432;28;20527;-80
2022/09/29 07:56:52;;;;;;;16.58;12.20;;;;;;;12.59;80.27;99516.00;5023666;28;20128;-82
2022/09/29 07:59:23;;;;;;;13.45;11.23;;;;;;;12.51;79.04;99518.88;5026029;28;20113;-81
2022/09/29 08:01:50;;;;;;;15.30;11.80;;;;;;;12.40;80.14;99527.16;5010583;28;20068;-81
2022/09/29 08:04:17;;;;;;;15.07;11.68;;;;;;;12.40;79.63;99521.91;4992731;28;20053;-81
2022/09/29 08:06:45;;;;;;;12.98;11.05;;;;;;;12.46;80.04;99518.19;5024059;28;20428;-80
2022/09/29 08:09:13;;;;;;;17.05;11.63;;;;;;;12.39;78.43;99533.28;5008411;28;20049;-81
2022/09/29 08:11:44;;;;;;;16.45;11.88;;;;;;;12.38;77.17;99528.09;5012033;28;20550;-79
2022/09/29 08:14:12;;;;;;;15.40;11.35;;;;;;;12.03;79.42;99530.16;5027133;28;20041;-80
2022/09/29 08:16:43;;;;;;;13.30;11.13;;;;;;;11.78;80.80;99530.91;5010279;28;20092;-79
2022/09/29 08:19:12;;;;;;;20.38;13.07;;;;;;;11.74;81.49;99534.53;5033728;28;20333;-80
2022/09/29 08:21:42;;;;;;;24.00;11.57;;;;;;;11.61;82.22;99536.69;5037716;28;20080;-80
2022/09/29 08:24:09;;;;;;;18.48;11.10;;;;;;;11.77;82.68;99539.69;5036065;28;20041;-78
2022/09/29 08:26:40;;;;;;;14.93;11.60;;;;;;;11.78;81.77;99532.69;4999585;28;20045;-79
2022/09/29 08:29:08;;;;;;;13.77;10.10;;;;;;;11.77;81.19;99537.06;5033335;28;20101;-79
2022/09/29 08:31:37;;;;;;;14.93;11.48;;;;;;;11.82;81.99;99542.16;4984190;28;20042;-80
2022/09/29 08:34:06;;;;;;;15.98;10.88;;;;;;;12.11;81.32;99543.91;5031353;28;20740;-79
2022/09/29 08:36:35;;;;;;;17.17;11.75;;;;;;;12.24;79.00;99541.69;5031449;28;20041;-80
2022/09/29 08:39:04;;;;;;;13.00;10.30;;;;;;;12.37;79.65;99548.25;5002192;28;20046;-80
2022/09/29 08:41:58;;;;;;;14.32;10.23;;;;;;;12.65;79.21;99544.66;5033054;28;20496;-80
2022/09/29 08:44:55;;;;;;;13.50;10.40;;;;;;;13.21;76.87;99542.66;5018138;28;20053;-78
2022/09/29 08:47:32;;;;;;;12.77;9.65;;;;;;;13.62;74.02;99552.53;5000100;28;20048;-79
2022/09/29 08:50:07;;;;;;;14.93;10.50;;;;;;;14.11;72.39;99549.69;5028531;28;20606;-79
2022/09/29 08:52:41;;;;;;;11.73;9.93;;;;;;;13.95;72.65;99549.44;5029574;28;20115;-81
2022/09/29 08:55:23;;;;;;;13.02;9.98;;;;;;;13.82;72.99;99551.72;5029069;28;20120;-80
2022/09/29 08:57:57;;;;;;;16.50;10.63;;;;;;;13.64;74.31;99555.97;5030867;28;20048;-81
2022/09/29 09:00:42;;;;;;;12.57;9.68;;;;;;;13.68;74.60;99555.75;5059369;28;21308;-80
2022/09/29 09:03:34;;;;;;;15.27;10.30;;;;;;;13.63;73.82;99555.09;5036075;28;20294;-80
2022/09/29 09:06:37;;;;;;;11.13;9.23;;;;;;;12.89;73.59;99563.06;5020643;28;20041;-80
2022/09/29 09:09:55;;;;;;;10.43;8.57;;;;;;;12.39;75.46;99559.53;5046201;28;20060;-79
2022/09/29 09:12:53;;;;;;;10.60;8.02;;;;;;;12.03;77.66;99561.63;5031626;28;20049;-79
2022/09/29 09:15:50;;;;;;;12.38;8.95;;;;;;;11.59;79.75;99570.81;5031210;28;20060;-80
2022/09/29 09:18:51;;;;;;;14.13;9.57;;;;;;;11.32;81.32;99569.03;5026280;28;20053;-81
2022/09/29 09:21:30;;;;;;;10.90;7.97;;;;;;;11.24;82.27;99577.97;5050490;28;20049;-81
2022/09/29 09:24:17;;;;;;;9.93;7.75;;;;;;;11.18;82.17;99575.50;5016375;28;20045;-80
2022/09/29 09:26:49;;;;;;;7.88;6.35;;;;;;;11.16;82.14;99579.09;5001640;28;20563;-79
2022/09/29 09:29:35;;;;;;;9.10;6.53;;;;;;;11.22;81.89;99579.78;5005872;28;20826;-81
2022/09/29 09:32:11;;;;;;;9.15;7.13;;;;;;;11.35;81.97;99577.66;4991857;28;20048;-81
2022/09/29 09:34:46;;;;;;;8.63;6.55;;;;;;;11.52;80.98;99574.53;5005015;28;20038;-80
2022/09/29 09:37:20;;;;;;;7.75;6.50;;;;;;;12.64;78.54;99573.59;5002057;28;20112;-80
2022/09/29 09:40:10;;;;;;;9.68;6.75;;;;;;;14.68;68.76;99578.94;5003429;28;20046;-82
2022/09/29 09:42:40;;;;;;;8.35;6.43;;;;;;;16.66;60.61;99580.22;5007008;28;20041;-80
2022/09/29 09:45:32;;;;;;;6.78;6.10;;;;;;;18.18;55.37;99576.41;5007824;28;20061;-81
2022/09/29 09:48:27;;;;;;;8.52;6.70;;;;;;;19.66;50.83;99571.09;5007864;28;20049;-79
2022/09/29 09:50:53;;;;;;;8.38;7.05;;;;;;;19.98;47.86;99578.78;5004723;28;20392;-82
2022/09/29 09:53:43;;;;;;;7.45;6.45;;;;;;;19.38;50.70;99587.91;5000821;28;20057;-82
2022/09/29 09:56:49;;;;;;;8.15;6.20;;;;;;;19.66;47.08;99574.56;5001042;28;20065;-81
2022/09/29 09:59:35;;;;;;;8.65;5.82;;;;;;;17.97;52.17;99589.09;5005677;28;20053;-83
2022/09/29 10:02:02;;;;;;;6.80;5.68;;;;;;;16.96;55.16;99579.59;5007775;28;20038;-81
2022/09/29 10:04:30;;;;;;;6.32;5.72;;;;;;;18.03;53.33;99582.63;5002930;28;20044;-83
2022/09/29 10:06:58;;;;;;;10.40;6.03;;;;;;;19.81;51.01;99580.72;5002229;28;20092;-82
2022/09/29 10:09:24;;;;;;;6.60;5.20;;;;;;;21.15;48.71;99575.38;5005158;28;20047;-82
2022/09/29 10:11:51;;;;;;;6.70;6.00;;;;;;;22.68;44.49;99574.88;4992964;28;20046;-81
2022/09/29 10:14:27;;;;;;;6.72;5.22;;;;;;;23.20;41.14;99577.16;5008943;28;20057;-81
2022/09/29 10:17:06;;;;;;;6.82;5.60;;;;;;;22.44;40.89;99578.47;5008310;28;20076;-82
2022/09/29 10:20:04;;;;;;;5.72;5.20;;;;;;;20.66;44.49;99580.44;5016495;28;20054;-82
2022/09/29 10:22:32;;;;;;;5.32;4.75;;;;;;;21.21;45.33;99582.06;4999395;28;20049;-82
2022/09/29 10:25:20;;;;;;;5.70;5.20;;;;;;;21.97;42.05;99582.84;5010955;28;20081;-82
2022/09/29 10:27:51;;;;;;;7.68;5.10;;;;;;;22.62;43.42;99575.38;5025482;28;20504;-80
2022/09/29 10:30:33;;;;;;;6.15;4.88;;;;;;;24.09;39.97;99577.16;5005979;28;20050;-82
2022/09/29 10:33:05;;;;;;;4.95;4.20;;;;;;;25.80;37.82;99569.66;5022519;28;20041;-82
2022/09/29 10:35:38;;;;;;;5.60;4.20;;;;;;;26.11;34.98;99566.88;5025586;28;20049;-81
2022/09/29 10:38:24;;;;;;;3.97;3.65;;;;;;;25.93;35.29;99578.28;5026431;28;20057;-82
2022/09/29 10:41:03;;;;;;;3.95;3.60;;;;;;;23.21;38.47;99587.72;5026692;28;20859;-82
2022/09/29 10:43:45;;;;;;;3.60;3.30;;;;;;;22.54;38.53;99585.75;5027781;28;20057;-82
2022/09/29 10:46:37;;;;;;;3.97;3.42;;;;;;;21.48;40.74;99587.22;5027552;28;20053;-82
2022/09/29 10:49:17;;;;;;;3.60;3.30;;;;;;;22.39;39.49;99591.28;5025121;28;20064;-85
2022/09/29 10:52:02;;;;;;;3.95;3.65;;;;;;;22.74;38.01;99585.09;5029316;28;20079;-80
2022/09/29 10:54:36;;;;;;;3.83;3.50;;;;;;;23.27;37.16;99599.72;5029347;28;20361;-79
2022/09/29 10:57:15;;;;;;;3.83;3.50;;;;;;;23.26;38.26;99584.69;5010997;28;20601;-82
2022/09/29 10:59:51;;;;;;;3.55;3.25;;;;;;;22.32;40.17;99579.38;5030552;28;20103;-81
2022/09/29 11:02:33;;;;;;;3.53;3.33;;;;;;;22.98;37.99;99580.66;5033069;28;20053;-80
2022/09/29 11:05:06;;;;;;;3.08;2.78;;;;;;;24.40;37.32;99582.63;5037246;28;20846;-81
2022/09/29 11:07:34;;;;;;;2.85;2.53;;;;;;;25.27;34.92;99570.75;5018892;28;20057;-82
2022/09/29 11:10:01;;;;;;;3.55;2.65;;;;;;;25.66;34.14;99586.97;5037607;28;20386;-82
2022/09/29 11:12:37;;;;;;;2.53;2.13;;;;;;;25.14;34.03;99581.69;5008085;28;20068;-82
2022/09/29 11:15:38;;;;;;;2.55;2.45;;;;;;;24.97;33.47;99585.84;5036474;28;20037;-83
2022/09/29 11:18:21;;;;;;;1.20;1.20;;;;;;;24.32;33.61;99598.47;5011009;28;20073;-83
2022/09/29 11:21:23;;;;;;;5.55;2.38;;;;;;;22.10;37.42;99598.78;5039950;28;20404;-83
2022/09/29 11:24:14;;;;;;;2.42;2.20;;;;;;;20.29;41.35;99606.00;5023185;28;20068;-83
2022/09/29 11:27:10;;;;;;;3.03;2.42;;;;;;;19.49;42.79;99609.31;5024001;28;20061;-83
2022/09/29 11:29:45;;;;;;;2.50;2.40;;;;;;;18.63;44.24;99621.53;5026647;28;20037;-82
2022/09/29 11:33:04;;;;;;;2.70;2.53;;;;;;;17.93;46.10;99624.63;5028541;28;20037;-84
2022/09/29 11:35:59;;;;;;;2.30;2.10;;;;;;;17.43;47.69;99618.53;5041426;28;20057;-83
2022/09/29 11:38:51;;;;;;;3.10;2.90;;;;;;;16.83;49.10;99621.63;5048176;28;20231;-82
2022/09/29 11:41:48;;;;;;;2.85;2.20;;;;;;;16.28;50.63;99628.78;5039991;28;20065;-83
2022/09/29 11:44:42;;;;;;;2.92;2.72;;;;;;;16.00;51.95;99630.09;5029192;28;20478;-85
2022/09/29 11:47:21;;;;;;;3.13;1.95;;;;;;;15.57;52.70;99632.09;5009891;28;20050;-81
2022/09/29 11:50:21;;;;;;;3.30;3.00;;;;;;;15.39;53.82;99642.53;5024384;28;20044;-82
2022/09/29 11:53:28;;;;;;;3.60;3.30;;;;;;;15.09;55.66;99638.66;5026617;28;20095;-83
2022/09/29 11:56:07;;;;;;;4.78;3.60;;;;;;;14.88;56.62;99634.22;5023678;28;20380;-81
2022/09/29 11:58:57;;;;;;;4.35;3.95;;;;;;;14.67;58.06;99636.00;5026346;28;20049;-81
2022/09/29 12:02:05;;;;;;;3.58;3.17;;;;;;;14.63;58.24;99637.03;5025358;28;20548;-83
2022/09/29 12:04:54;;;;;;;3.78;3.47;;;;;;;14.74;57.85;99627.84;5026184;28;20045;-84